sensor_id;sensor_type;location;lat;lon;timestamp;temperature;humidity
36498;DHT22;22513;51.222;6.480;2022-09-09T00:04:31;14.60;99.90
36498;DHT22;22513;51.222;6.480;2022-09-09T00:09:53;14.50;99.90
36498;DHT22;22513;51.222;6.480;2022-09-09T00:14:56;14.50;99.90
36498;DHT22;22513;51.222;6.480;2022-09-09T00:23:12;14.30;99.90
36498;DHT22;22513;51.222;6.480;2022-09-09T00:28:25;14.10;99.90
36498;DHT22;22513;51.222;6.480;2022-09-09T00:30:52;14.10;99.90
36498;DHT22;22513;51.222;6.480;2022-09-09T00:33:20;14.10;99.90
36498;DHT22;22513;51.222;6.480;2022-09-09T00:35:50;14.00;99.90
36498;DHT22;22513;51.222;6.480;2022-09-09T00:38:22;14.10;99.90
36498;DHT22;22513;51.222;6.480;2022-09-09T00:59:50;13.60;99.90
36498;DHT22;22513;51.222;6.480;2022-09-09T01:02:39;13.50;99.90
36498;DHT22;22513;51.222;6.480;2022-09-09T01:05:22;13.40;99.90
36498;DHT22;22513;51.222;6.480;2022-09-09T01:07:52;13.40;99.90
36498;DHT22;22513;51.222;6.480;2022-09-09T01:10:52;13.40;99.90
36498;DHT22;22513;51.222;6.480;2022-09-09T01:13:44;13.40;99.90
36498;DHT22;22513;51.222;6.480;2022-09-09T01:16:12;13.50;99.90
36498;DHT22;22513;51.222;6.480;2022-09-09T01:18:44;13.50;99.90
36498;DHT22;22513;51.222;6.480;2022-09-09T01:21:42;13.50;99.90
36498;DHT22;22513;51.222;6.480;2022-09-09T01:24:22;13.60;99.90
36498;DHT22;22513;51.222;6.480;2022-09-09T01:26:52;13.60;99.90
36498;DHT22;22513;51.222;6.480;2022-09-09T01:29:21;13.60;99.90
36498;DHT22;22513;51.222;6.480;2022-09-09T01:34:24;13.60;99.90
36498;DHT22;22513;51.222;6.480;2022-09-09T01:37:02;13.50;99.90
36498;DHT22;22513;51.222;6.480;2022-09-09T01:39:30;13.50;99.90
36498;DHT22;22513;51.222;6.480;2022-09-09T01:41:56;13.50;99.90
36498;DHT22;22513;51.222;6.480;2022-09-09T01:44:23;13.50;99.90
36498;DHT22;22513;51.222;6.480;2022-09-09T01:46:49;13.50;99.90
36498;DHT22;22513;51.222;6.480;2022-09-09T01:49:16;13.40;99.90
36498;DHT22;22513;51.222;6.480;2022-09-09T01:51:42;13.40;99.90
36498;DHT22;22513;51.222;6.480;2022-09-09T01:54:08;13.40;99.90
36498;DHT22;22513;51.222;6.480;2022-09-09T01:56:40;13.40;99.90
36498;DHT22;22513;51.222;6.480;2022-09-09T02:02:13;13.40;99.90
36498;DHT22;22513;51.222;6.480;2022-09-09T02:04:50;13.40;99.90
36498;DHT22;22513;51.222;6.480;2022-09-09T02:12:46;13.50;99.90
36498;DHT22;22513;51.222;6.480;2022-09-09T02:15:38;13.60;99.90
36498;DHT22;22513;51.222;6.480;2022-09-09T02:18:09;13.60;99.90
36498;DHT22;22513;51.222;6.480;2022-09-09T02:20:38;13.70;99.90
36498;DHT22;22513;51.222;6.480;2022-09-09T02:23:05;13.70;99.90
36498;DHT22;22513;51.222;6.480;2022-09-09T02:25:34;13.80;99.90
36498;DHT22;22513;51.222;6.480;2022-09-09T02:28:03;13.80;99.90
36498;DHT22;22513;51.222;6.480;2022-09-09T02:30:31;13.90;99.90
36498;DHT22;22513;51.222;6.480;2022-09-09T02:32:58;13.90;99.90
36498;DHT22;22513;51.222;6.480;2022-09-09T02:35:28;13.90;99.90
36498;DHT22;22513;51.222;6.480;2022-09-09T02:37:59;14.00;99.90
36498;DHT22;22513;51.222;6.480;2022-09-09T02:40:26;14.00;99.90
36498;DHT22;22513;51.222;6.480;2022-09-09T02:42:54;14.10;99.90
36498;DHT22;22513;51.222;6.480;2022-09-09T02:45:24;14.10;99.90
36498;DHT22;22513;51.222;6.480;2022-09-09T02:50:38;14.10;99.90
36498;DHT22;22513;51.222;6.480;2022-09-09T02:53:09;14.10;99.90
36498;DHT22;22513;51.222;6.480;2022-09-09T02:55:50;14.20;99.90
36498;DHT22;22513;51.222;6.480;2022-09-09T02:58:20;14.20;99.90
36498;DHT22;22513;51.222;6.480;2022-09-09T03:00:47;14.20;99.90
36498;DHT22;22513;51.222;6.480;2022-09-09T03:03:14;14.20;99.90
36498;DHT22;22513;51.222;6.480;2022-09-09T03:05:42;14.20;99.90
36498;DHT22;22513;51.222;6.480;2022-09-09T03:08:08;14.20;99.90
36498;DHT22;22513;51.222;6.480;2022-09-09T03:10:34;14.20;99.90
36498;DHT22;22513;51.222;6.480;2022-09-09T03:13:01;14.20;99.90
36498;DHT22;22513;51.222;6.480;2022-09-09T03:15:26;14.20;99.90
36498;DHT22;22513;51.222;6.480;2022-09-09T03:17:55;14.10;99.90
36498;DHT22;22513;51.222;6.480;2022-09-09T03:20:26;14.10;99.90
36498;DHT22;22513;51.222;6.480;2022-09-09T03:22:55;14.00;99.90
36498;DHT22;22513;51.222;6.480;2022-09-09T03:25:22;14.00;99.90
36498;DHT22;22513;51.222;6.480;2022-09-09T03:27:52;13.90;99.90
36498;DHT22;22513;51.222;6.480;2022-09-09T03:30:23;13.80;99.90
36498;DHT22;22513;51.222;6.480;2022-09-09T03:32:49;13.80;99.90
36498;DHT22;22513;51.222;6.480;2022-09-09T03:35:15;13.70;99.90
36498;DHT22;22513;51.222;6.480;2022-09-09T03:37:41;13.70;99.90
36498;DHT22;22513;51.222;6.480;2022-09-09T03:40:07;13.70;99.90
36498;DHT22;22513;51.222;6.480;2022-09-09T03:42:35;13.60;99.90
36498;DHT22;22513;51.222;6.480;2022-09-09T03:45:05;13.60;99.90
36498;DHT22;22513;51.222;6.480;2022-09-09T03:47:31;13.60;99.90
36498;DHT22;22513;51.222;6.480;2022-09-09T03:49:57;13.60;99.90
36498;DHT22;22513;51.222;6.480;2022-09-09T03:52:22;13.70;99.90
36498;DHT22;22513;51.222;6.480;2022-09-09T03:54:50;13.80;99.90
36498;DHT22;22513;51.222;6.480;2022-09-09T03:57:17;13.80;99.90
36498;DHT22;22513;51.222;6.480;2022-09-09T03:59:43;13.80;99.90
36498;DHT22;22513;51.222;6.480;2022-09-09T04:02:09;13.80;99.90
36498;DHT22;22513;51.222;6.480;2022-09-09T04:04:34;13.80;99.90
36498;DHT22;22513;51.222;6.480;2022-09-09T04:07:00;13.80;99.90
36498;DHT22;22513;51.222;6.480;2022-09-09T04:09:26;13.80;99.90
36498;DHT22;22513;51.222;6.480;2022-09-09T04:11:54;13.80;99.90
36498;DHT22;22513;51.222;6.480;2022-09-09T04:14:21;13.80;99.90
36498;DHT22;22513;51.222;6.480;2022-09-09T04:16:47;13.90;99.90
36498;DHT22;22513;51.222;6.480;2022-09-09T04:19:13;13.90;99.90
36498;DHT22;22513;51.222;6.480;2022-09-09T04:21:42;14.00;99.90
36498;DHT22;22513;51.222;6.480;2022-09-09T04:24:08;14.00;99.90
36498;DHT22;22513;51.222;6.480;2022-09-09T04:26:34;14.10;99.90
36498;DHT22;22513;51.222;6.480;2022-09-09T04:29:02;14.20;99.90
36498;DHT22;22513;51.222;6.480;2022-09-09T04:31:28;14.20;99.90
36498;DHT22;22513;51.222;6.480;2022-09-09T04:33:54;14.30;99.90
36498;DHT22;22513;51.222;6.480;2022-09-09T04:36:20;14.30;99.90
36498;DHT22;22513;51.222;6.480;2022-09-09T04:38:46;14.40;99.90
36498;DHT22;22513;51.222;6.480;2022-09-09T04:41:14;14.40;99.90
36498;DHT22;22513;51.222;6.480;2022-09-09T04:43:40;14.40;99.90
36498;DHT22;22513;51.222;6.480;2022-09-09T04:46:06;14.50;99.90
36498;DHT22;22513;51.222;6.480;2022-09-09T04:48:32;14.50;99.90
36498;DHT22;22513;51.222;6.480;2022-09-09T04:51:03;14.50;99.90
36498;DHT22;22513;51.222;6.480;2022-09-09T04:53:30;14.60;99.90
36498;DHT22;22513;51.222;6.480;2022-09-09T04:56:03;14.70;99.90
36498;DHT22;22513;51.222;6.480;2022-09-09T04:58:30;14.70;99.90
36498;DHT22;22513;51.222;6.480;2022-09-09T05:01:03;14.70;99.90
36498;DHT22;22513;51.222;6.480;2022-09-09T05:03:29;14.70;99.90
36498;DHT22;22513;51.222;6.480;2022-09-09T05:05:55;14.80;99.90
36498;DHT22;22513;51.222;6.480;2022-09-09T05:08:27;14.80;99.90
36498;DHT22;22513;51.222;6.480;2022-09-09T05:10:52;14.80;99.90
36498;DHT22;22513;51.222;6.480;2022-09-09T05:13:18;14.80;99.90
36498;DHT22;22513;51.222;6.480;2022-09-09T05:15:52;14.80;99.90
36498;DHT22;22513;51.222;6.480;2022-09-09T05:18:18;14.80;99.90
36498;DHT22;22513;51.222;6.480;2022-09-09T05:20:43;14.80;99.90
36498;DHT22;22513;51.222;6.480;2022-09-09T05:23:09;14.80;99.90
36498;DHT22;22513;51.222;6.480;2022-09-09T05:25:36;14.90;99.90
36498;DHT22;22513;51.222;6.480;2022-09-09T05:28:02;14.90;99.90
36498;DHT22;22513;51.222;6.480;2022-09-09T05:30:27;14.90;99.90
36498;DHT22;22513;51.222;6.480;2022-09-09T05:32:56;15.00;99.90
36498;DHT22;22513;51.222;6.480;2022-09-09T05:35:21;14.90;99.90
36498;DHT22;22513;51.222;6.480;2022-09-09T05:37:48;15.00;99.90
36498;DHT22;22513;51.222;6.480;2022-09-09T05:40:14;15.00;99.90
36498;DHT22;22513;51.222;6.480;2022-09-09T05:42:40;15.00;99.90
36498;DHT22;22513;51.222;6.480;2022-09-09T05:45:07;15.00;99.90
36498;DHT22;22513;51.222;6.480;2022-09-09T05:47:33;15.00;99.90
36498;DHT22;22513;51.222;6.480;2022-09-09T05:49:59;15.10;99.90
36498;DHT22;22513;51.222;6.480;2022-09-09T05:52:24;15.10;99.90
36498;DHT22;22513;51.222;6.480;2022-09-09T05:54:51;15.20;99.90
36498;DHT22;22513;51.222;6.480;2022-09-09T05:57:17;15.20;99.90
36498;DHT22;22513;51.222;6.480;2022-09-09T05:59:44;15.30;99.90
36498;DHT22;22513;51.222;6.480;2022-09-09T06:02:10;15.40;99.90
36498;DHT22;22513;51.222;6.480;2022-09-09T06:04:35;15.40;99.90
36498;DHT22;22513;51.222;6.480;2022-09-09T06:07:01;15.50;99.90
36498;DHT22;22513;51.222;6.480;2022-09-09T06:09:27;15.50;99.90
36498;DHT22;22513;51.222;6.480;2022-09-09T06:11:52;15.60;99.90
36498;DHT22;22513;51.222;6.480;2022-09-09T06:14:19;15.60;99.90
36498;DHT22;22513;51.222;6.480;2022-09-09T06:16:45;15.70;99.90
36498;DHT22;22513;51.222;6.480;2022-09-09T06:19:11;15.80;99.90
36498;DHT22;22513;51.222;6.480;2022-09-09T06:21:38;16.00;99.90
36498;DHT22;22513;51.222;6.480;2022-09-09T06:24:04;16.20;99.90
36498;DHT22;22513;51.222;6.480;2022-09-09T06:26:35;16.50;99.90
36498;DHT22;22513;51.222;6.480;2022-09-09T06:29:01;16.80;99.90
36498;DHT22;22513;51.222;6.480;2022-09-09T06:31:30;17.10;99.90
36498;DHT22;22513;51.222;6.480;2022-09-09T06:33:57;17.30;99.90
36498;DHT22;22513;51.222;6.480;2022-09-09T06:36:29;17.50;99.90
36498;DHT22;22513;51.222;6.480;2022-09-09T06:38:55;17.90;99.90
36498;DHT22;22513;51.222;6.480;2022-09-09T06:41:23;18.80;99.90
36498;DHT22;22513;51.222;6.480;2022-09-09T06:43:49;20.10;99.90
36498;DHT22;22513;51.222;6.480;2022-09-09T06:46:19;21.10;99.90
36498;DHT22;22513;51.222;6.480;2022-09-09T06:48:47;22.20;99.90
36498;DHT22;22513;51.222;6.480;2022-09-09T06:51:20;22.80;99.90
36498;DHT22;22513;51.222;6.480;2022-09-09T06:53:53;23.10;99.90
36498;DHT22;22513;51.222;6.480;2022-09-09T06:56:36;22.80;99.90
36498;DHT22;22513;51.222;6.480;2022-09-09T06:59:06;22.30;99.90
36498;DHT22;22513;51.222;6.480;2022-09-09T07:01:36;21.90;99.90
36498;DHT22;22513;51.222;6.480;2022-09-09T07:04:03;21.60;99.90
36498;DHT22;22513;51.222;6.480;2022-09-09T07:06:35;21.70;99.90
36498;DHT22;22513;51.222;6.480;2022-09-09T07:09:09;21.60;99.90
36498;DHT22;22513;51.222;6.480;2022-09-09T07:11:47;21.80;99.90
36498;DHT22;22513;51.222;6.480;2022-09-09T07:14:13;22.00;99.90
36498;DHT22;22513;51.222;6.480;2022-09-09T07:16:40;22.90;99.90
36498;DHT22;22513;51.222;6.480;2022-09-09T07:19:06;24.10;99.90
36498;DHT22;22513;51.222;6.480;2022-09-09T07:21:32;25.10;99.90
36498;DHT22;22513;51.222;6.480;2022-09-09T07:23:58;25.80;99.90
36498;DHT22;22513;51.222;6.480;2022-09-09T07:26:26;26.60;99.90
36498;DHT22;22513;51.222;6.480;2022-09-09T07:28:53;27.70;99.90
36498;DHT22;22513;51.222;6.480;2022-09-09T07:31:22;28.50;99.90
36498;DHT22;22513;51.222;6.480;2022-09-09T07:33:49;29.00;98.60
36498;DHT22;22513;51.222;6.480;2022-09-09T07:36:27;29.10;97.60
36498;DHT22;22513;51.222;6.480;2022-09-09T07:38:55;29.10;95.80
36498;DHT22;22513;51.222;6.480;2022-09-09T07:41:33;28.60;96.40
36498;DHT22;22513;51.222;6.480;2022-09-09T07:44:03;28.20;96.10
36498;DHT22;22513;51.222;6.480;2022-09-09T07:46:30;27.20;96.80
36498;DHT22;22513;51.222;6.480;2022-09-09T07:48:56;26.50;98.30
36498;DHT22;22513;51.222;6.480;2022-09-09T07:51:25;26.00;98.90
36498;DHT22;22513;51.222;6.480;2022-09-09T07:53:57;25.50;98.80
36498;DHT22;22513;51.222;6.480;2022-09-09T07:56:24;25.00;98.50
36498;DHT22;22513;51.222;6.480;2022-09-09T07:58:51;25.30;99.90
36498;DHT22;22513;51.222;6.480;2022-09-09T08:01:21;25.40;99.00
36498;DHT22;22513;51.222;6.480;2022-09-09T08:03:52;25.30;99.20
36498;DHT22;22513;51.222;6.480;2022-09-09T08:06:18;25.50;99.90
36498;DHT22;22513;51.222;6.480;2022-09-09T08:08:43;26.10;98.40
36498;DHT22;22513;51.222;6.480;2022-09-09T08:11:12;26.70;99.50
36498;DHT22;22513;51.222;6.480;2022-09-09T08:13:40;27.40;98.60
36498;DHT22;22513;51.222;6.480;2022-09-09T08:16:11;28.30;95.40
36498;DHT22;22513;51.222;6.480;2022-09-09T08:18:37;28.80;94.20
36498;DHT22;22513;51.222;6.480;2022-09-09T08:21:15;28.60;91.20
36498;DHT22;22513;51.222;6.480;2022-09-09T08:23:43;27.80;90.50
36498;DHT22;22513;51.222;6.480;2022-09-09T08:26:16;27.10;91.20
36498;DHT22;22513;51.222;6.480;2022-09-09T08:28:42;26.20;90.90
36498;DHT22;22513;51.222;6.480;2022-09-09T08:31:14;25.60;92.00
36498;DHT22;22513;51.222;6.480;2022-09-09T08:33:41;24.90;91.80
36498;DHT22;22513;51.222;6.480;2022-09-09T08:36:09;24.30;92.60
36498;DHT22;22513;51.222;6.480;2022-09-09T08:38:35;23.90;93.70
36498;DHT22;22513;51.222;6.480;2022-09-09T08:44:07;23.80;94.70
36498;DHT22;22513;51.222;6.480;2022-09-09T08:52:25;23.20;93.70
36498;DHT22;22513;51.222;6.480;2022-09-09T08:54:53;22.80;93.90
36498;DHT22;22513;51.222;6.480;2022-09-09T08:57:23;22.80;94.40
36498;DHT22;22513;51.222;6.480;2022-09-09T08:59:52;22.70;94.90
36498;DHT22;22513;51.222;6.480;2022-09-09T09:07:28;22.50;94.70
36498;DHT22;22513;51.222;6.480;2022-09-09T09:12:41;22.30;95.20
36498;DHT22;22513;51.222;6.480;2022-09-09T09:15:18;22.50;95.40
36498;DHT22;22513;51.222;6.480;2022-09-09T09:17:44;22.90;95.30
36498;DHT22;22513;51.222;6.480;2022-09-09T09:20:14;23.30;94.00
36498;DHT22;22513;51.222;6.480;2022-09-09T09:22:51;23.40;94.10
36498;DHT22;22513;51.222;6.480;2022-09-09T09:25:41;23.60;93.20
36498;DHT22;22513;51.222;6.480;2022-09-09T09:30:46;23.70;92.10
36498;DHT22;22513;51.222;6.480;2022-09-09T09:35:46;23.30;92.30
36498;DHT22;22513;51.222;6.480;2022-09-09T09:38:18;23.00;92.20
36498;DHT22;22513;51.222;6.480;2022-09-09T09:40:52;22.80;92.90
36498;DHT22;22513;51.222;6.480;2022-09-09T09:43:24;22.70;92.80
36498;DHT22;22513;51.222;6.480;2022-09-09T09:45:50;22.80;93.10
36498;DHT22;22513;51.222;6.480;2022-09-09T09:48:15;22.80;92.60
36498;DHT22;22513;51.222;6.480;2022-09-09T09:53:26;23.10;92.50
36498;DHT22;22513;51.222;6.480;2022-09-09T09:56:00;23.20;92.40
36498;DHT22;22513;51.222;6.480;2022-09-09T09:58:29;23.50;92.30
36498;DHT22;22513;51.222;6.480;2022-09-09T10:00:56;23.70;91.90
36498;DHT22;22513;51.222;6.480;2022-09-09T10:03:29;23.70;91.60
36498;DHT22;22513;51.222;6.480;2022-09-09T10:05:55;23.70;91.40
36498;DHT22;22513;51.222;6.480;2022-09-09T10:08:26;23.40;91.20
36498;DHT22;22513;51.222;6.480;2022-09-09T10:11:26;23.10;91.60
36498;DHT22;22513;51.222;6.480;2022-09-09T10:17:05;22.70;92.60
36498;DHT22;22513;51.222;6.480;2022-09-09T10:19:35;22.60;92.60
36498;DHT22;22513;51.222;6.480;2022-09-09T10:35:25;23.40;92.10
36498;DHT22;22513;51.222;6.480;2022-09-09T10:38:14;23.50;91.80
36498;DHT22;22513;51.222;6.480;2022-09-09T10:49:10;22.70;91.50
36498;DHT22;22513;51.222;6.480;2022-09-09T10:57:39;22.70;91.70
36498;DHT22;22513;51.222;6.480;2022-09-09T11:05:27;22.90;91.60
36498;DHT22;22513;51.222;6.480;2022-09-09T11:10:46;22.80;91.50
36498;DHT22;22513;51.222;6.480;2022-09-09T11:13:19;22.90;91.60
36498;DHT22;22513;51.222;6.480;2022-09-09T11:15:57;23.10;91.20
36498;DHT22;22513;51.222;6.480;2022-09-09T11:18:25;23.20;91.30
36498;DHT22;22513;51.222;6.480;2022-09-09T11:20:59;23.40;91.20
36498;DHT22;22513;51.222;6.480;2022-09-09T11:23:54;23.50;91.00
36498;DHT22;22513;51.222;6.480;2022-09-09T11:26:32;23.60;91.00
36498;DHT22;22513;51.222;6.480;2022-09-09T11:34:39;24.10;90.20
36498;DHT22;22513;51.222;6.480;2022-09-09T11:42:45;24.00;90.00
36498;DHT22;22513;51.222;6.480;2022-09-09T11:45:21;23.60;90.40
36498;DHT22;22513;51.222;6.480;2022-09-09T11:47:55;23.40;91.00
36498;DHT22;22513;51.222;6.480;2022-09-09T11:52:50;23.30;91.60
36498;DHT22;22513;51.222;6.480;2022-09-09T11:55:28;23.20;91.30
36498;DHT22;22513;51.222;6.480;2022-09-09T11:58:05;23.10;91.30
36498;DHT22;22513;51.222;6.480;2022-09-09T12:00:42;23.00;91.30
36498;DHT22;22513;51.222;6.480;2022-09-09T12:05:55;22.60;91.90
36498;DHT22;22513;51.222;6.480;2022-09-09T12:08:28;22.30;92.70
36498;DHT22;22513;51.222;6.480;2022-09-09T12:10:57;22.20;95.00
36498;DHT22;22513;51.222;6.480;2022-09-09T12:13:26;21.90;97.40
36498;DHT22;22513;51.222;6.480;2022-09-09T12:15:54;21.40;98.90
36498;DHT22;22513;51.222;6.480;2022-09-09T12:18:23;21.20;99.60
36498;DHT22;22513;51.222;6.480;2022-09-09T12:37:44;18.80;99.90
36498;DHT22;22513;51.222;6.480;2022-09-09T12:40:27;18.70;99.90
36498;DHT22;22513;51.222;6.480;2022-09-09T12:42:53;18.60;99.90
36498;DHT22;22513;51.222;6.480;2022-09-09T12:45:25;18.60;99.90
36498;DHT22;22513;51.222;6.480;2022-09-09T12:50:36;18.60;99.90
36498;DHT22;22513;51.222;6.480;2022-09-09T12:55:38;19.40;99.90
36498;DHT22;22513;51.222;6.480;2022-09-09T12:58:05;19.70;99.90
36498;DHT22;22513;51.222;6.480;2022-09-09T13:00:35;19.90;99.90
36498;DHT22;22513;51.222;6.480;2022-09-09T13:05:34;20.50;99.90
36498;DHT22;22513;51.222;6.480;2022-09-09T13:08:09;20.70;99.90
36498;DHT22;22513;51.222;6.480;2022-09-09T13:11:02;20.80;99.90
36498;DHT22;22513;51.222;6.480;2022-09-09T13:13:36;20.90;99.90
36498;DHT22;22513;51.222;6.480;2022-09-09T13:16:04;21.00;99.90
36498;DHT22;22513;51.222;6.480;2022-09-09T13:18:34;20.90;99.90
36498;DHT22;22513;51.222;6.480;2022-09-09T13:21:01;20.90;99.90
36498;DHT22;22513;51.222;6.480;2022-09-09T13:23:30;20.90;99.90
36498;DHT22;22513;51.222;6.480;2022-09-09T13:26:02;21.00;99.90
36498;DHT22;22513;51.222;6.480;2022-09-09T13:28:29;21.00;99.90
36498;DHT22;22513;51.222;6.480;2022-09-09T13:30:59;20.90;99.90
36498;DHT22;22513;51.222;6.480;2022-09-09T13:38:32;20.80;99.90
36498;DHT22;22513;51.222;6.480;2022-09-09T13:41:03;20.90;99.90
36498;DHT22;22513;51.222;6.480;2022-09-09T13:43:43;21.00;99.90
36498;DHT22;22513;51.222;6.480;2022-09-09T13:54:06;21.80;99.90
36498;DHT22;22513;51.222;6.480;2022-09-09T13:56:35;21.70;99.90
36498;DHT22;22513;51.222;6.480;2022-09-09T13:59:01;21.60;99.90
36498;DHT22;22513;51.222;6.480;2022-09-09T14:01:27;21.50;99.90
36498;DHT22;22513;51.222;6.480;2022-09-09T14:03:53;21.50;99.90
36498;DHT22;22513;51.222;6.480;2022-09-09T14:06:19;21.40;99.90
36498;DHT22;22513;51.222;6.480;2022-09-09T14:08:48;20.60;99.90
36498;DHT22;22513;51.222;6.480;2022-09-09T14:11:14;19.50;99.90
36498;DHT22;22513;51.222;6.480;2022-09-09T14:13:40;18.60;99.90
36498;DHT22;22513;51.222;6.480;2022-09-09T14:16:06;18.10;99.90
36498;DHT22;22513;51.222;6.480;2022-09-09T14:18:31;17.60;99.90
36498;DHT22;22513;51.222;6.480;2022-09-09T14:20:57;17.30;99.90
36498;DHT22;22513;51.222;6.480;2022-09-09T14:23:24;17.00;99.90
36498;DHT22;22513;51.222;6.480;2022-09-09T14:25:50;16.90;99.90
36498;DHT22;22513;51.222;6.480;2022-09-09T14:28:16;16.70;99.90
36498;DHT22;22513;51.222;6.480;2022-09-09T14:30:43;16.60;99.90
36498;DHT22;22513;51.222;6.480;2022-09-09T14:35:35;16.50;99.90
36498;DHT22;22513;51.222;6.480;2022-09-09T14:38:02;16.40;99.90
36498;DHT22;22513;51.222;6.480;2022-09-09T14:40:28;16.40;99.90
36498;DHT22;22513;51.222;6.480;2022-09-09T14:42:54;16.30;99.90
36498;DHT22;22513;51.222;6.480;2022-09-09T14:45:22;16.30;99.90
36498;DHT22;22513;51.222;6.480;2022-09-09T14:47:50;16.20;99.90
36498;DHT22;22513;51.222;6.480;2022-09-09T14:50:16;16.20;99.90
36498;DHT22;22513;51.222;6.480;2022-09-09T14:52:41;16.30;99.90
36498;DHT22;22513;51.222;6.480;2022-09-09T14:55:07;16.30;99.90
36498;DHT22;22513;51.222;6.480;2022-09-09T14:57:33;16.50;99.90
36498;DHT22;22513;51.222;6.480;2022-09-09T15:00:00;16.60;99.90
36498;DHT22;22513;51.222;6.480;2022-09-09T15:02:25;16.80;99.90
36498;DHT22;22513;51.222;6.480;2022-09-09T15:04:51;17.00;99.90
36498;DHT22;22513;51.222;6.480;2022-09-09T15:07:18;17.20;99.90
36498;DHT22;22513;51.222;6.480;2022-09-09T15:09:44;17.40;99.90
36498;DHT22;22513;51.222;6.480;2022-09-09T15:12:10;17.60;99.90
36498;DHT22;22513;51.222;6.480;2022-09-09T15:14:36;17.80;99.90
36498;DHT22;22513;51.222;6.480;2022-09-09T15:17:01;18.10;99.90
36498;DHT22;22513;51.222;6.480;2022-09-09T15:19:27;18.30;99.90
36498;DHT22;22513;51.222;6.480;2022-09-09T15:21:52;18.60;99.90
36498;DHT22;22513;51.222;6.480;2022-09-09T15:24:19;18.90;99.90
36498;DHT22;22513;51.222;6.480;2022-09-09T15:26:45;19.20;99.90
36498;DHT22;22513;51.222;6.480;2022-09-09T15:29:10;19.50;99.90
36498;DHT22;22513;51.222;6.480;2022-09-09T15:31:36;19.70;99.90
36498;DHT22;22513;51.222;6.480;2022-09-09T15:34:04;20.00;99.90
36498;DHT22;22513;51.222;6.480;2022-09-09T15:36:36;20.30;99.90
36498;DHT22;22513;51.222;6.480;2022-09-09T15:39:04;20.40;99.90
36498;DHT22;22513;51.222;6.480;2022-09-09T15:41:30;20.50;99.90
36498;DHT22;22513;51.222;6.480;2022-09-09T15:44:00;20.60;99.90
36498;DHT22;22513;51.222;6.480;2022-09-09T15:49:19;20.70;99.90
36498;DHT22;22513;51.222;6.480;2022-09-09T15:51:54;20.80;99.90
36498;DHT22;22513;51.222;6.480;2022-09-09T15:54:22;20.80;99.90
36498;DHT22;22513;51.222;6.480;2022-09-09T15:56:57;20.80;99.90
36498;DHT22;22513;51.222;6.480;2022-09-09T15:59:24;20.70;99.90
36498;DHT22;22513;51.222;6.480;2022-09-09T16:01:50;20.60;99.90
36498;DHT22;22513;51.222;6.480;2022-09-09T16:04:20;20.60;99.90
36498;DHT22;22513;51.222;6.480;2022-09-09T16:06:54;20.60;99.90
36498;DHT22;22513;51.222;6.480;2022-09-09T16:09:20;20.60;99.90
36498;DHT22;22513;51.222;6.480;2022-09-09T16:11:46;20.70;99.90
36498;DHT22;22513;51.222;6.480;2022-09-09T16:14:13;20.70;99.90
36498;DHT22;22513;51.222;6.480;2022-09-09T16:16:41;20.70;99.90
36498;DHT22;22513;51.222;6.480;2022-09-09T16:19:09;20.60;99.90
36498;DHT22;22513;51.222;6.480;2022-09-09T16:21:38;20.60;99.90
36498;DHT22;22513;51.222;6.480;2022-09-09T16:24:06;20.50;99.90
36498;DHT22;22513;51.222;6.480;2022-09-09T16:26:34;20.40;99.90
36498;DHT22;22513;51.222;6.480;2022-09-09T16:29:01;20.20;99.90
36498;DHT22;22513;51.222;6.480;2022-09-09T16:31:28;20.00;99.90
36498;DHT22;22513;51.222;6.480;2022-09-09T16:33:54;19.90;99.90
36498;DHT22;22513;51.222;6.480;2022-09-09T16:36:22;19.90;99.90
36498;DHT22;22513;51.222;6.480;2022-09-09T16:38:52;19.80;99.90
36498;DHT22;22513;51.222;6.480;2022-09-09T16:41:20;19.70;99.90
36498;DHT22;22513;51.222;6.480;2022-09-09T16:43:46;19.60;99.90
36498;DHT22;22513;51.222;6.480;2022-09-09T16:46:17;19.50;99.90
36498;DHT22;22513;51.222;6.480;2022-09-09T16:48:44;19.40;99.90
36498;DHT22;22513;51.222;6.480;2022-09-09T16:51:22;19.40;99.90
36498;DHT22;22513;51.222;6.480;2022-09-09T16:53:52;19.30;99.90
36498;DHT22;22513;51.222;6.480;2022-09-09T16:56:26;19.20;99.90
36498;DHT22;22513;51.222;6.480;2022-09-09T16:58:54;19.10;99.90
36498;DHT22;22513;51.222;6.480;2022-09-09T17:01:24;19.00;99.90
36498;DHT22;22513;51.222;6.480;2022-09-09T17:03:58;19.00;99.90
36498;DHT22;22513;51.222;6.480;2022-09-09T17:06:24;18.90;99.90
36498;DHT22;22513;51.222;6.480;2022-09-09T17:08:58;18.80;99.90
36498;DHT22;22513;51.222;6.480;2022-09-09T17:11:25;18.80;99.90
36498;DHT22;22513;51.222;6.480;2022-09-09T17:13:52;18.70;99.90
36498;DHT22;22513;51.222;6.480;2022-09-09T17:16:19;18.70;99.90
36498;DHT22;22513;51.222;6.480;2022-09-09T17:18:47;18.60;99.90
36498;DHT22;22513;51.222;6.480;2022-09-09T17:21:15;18.60;99.90
36498;DHT22;22513;51.222;6.480;2022-09-09T17:23:42;18.60;99.90
36498;DHT22;22513;51.222;6.480;2022-09-09T17:26:11;18.50;99.90
36498;DHT22;22513;51.222;6.480;2022-09-09T17:28:38;18.40;99.90
36498;DHT22;22513;51.222;6.480;2022-09-09T17:31:08;18.30;99.90
36498;DHT22;22513;51.222;6.480;2022-09-09T17:33:36;18.20;99.90
36498;DHT22;22513;51.222;6.480;2022-09-09T17:36:10;18.00;99.90
36498;DHT22;22513;51.222;6.480;2022-09-09T17:38:37;18.00;99.90
36498;DHT22;22513;51.222;6.480;2022-09-09T17:41:20;17.80;99.90
36498;DHT22;22513;51.222;6.480;2022-09-09T17:43:47;17.80;99.90
36498;DHT22;22513;51.222;6.480;2022-09-09T17:46:20;17.70;99.90
36498;DHT22;22513;51.222;6.480;2022-09-09T17:48:48;17.60;99.90
36498;DHT22;22513;51.222;6.480;2022-09-09T17:51:21;17.50;99.90
36498;DHT22;22513;51.222;6.480;2022-09-09T17:53:53;17.40;99.90
36498;DHT22;22513;51.222;6.480;2022-09-09T17:56:21;17.30;99.90
36498;DHT22;22513;51.222;6.480;2022-09-09T17:58:47;17.20;99.90
36498;DHT22;22513;51.222;6.480;2022-09-09T18:01:19;17.20;99.90
36498;DHT22;22513;51.222;6.480;2022-09-09T18:03:46;17.00;99.90
36498;DHT22;22513;51.222;6.480;2022-09-09T18:06:16;17.00;99.90
36498;DHT22;22513;51.222;6.480;2022-09-09T18:08:48;16.90;99.90
36498;DHT22;22513;51.222;6.480;2022-09-09T18:11:15;16.80;99.90
36498;DHT22;22513;51.222;6.480;2022-09-09T18:13:40;16.80;99.90
36498;DHT22;22513;51.222;6.480;2022-09-09T18:16:07;16.60;99.90
36498;DHT22;22513;51.222;6.480;2022-09-09T18:18:33;16.60;99.90
36498;DHT22;22513;51.222;6.480;2022-09-09T18:21:01;16.50;99.90
36498;DHT22;22513;51.222;6.480;2022-09-09T18:23:28;16.40;99.90
36498;DHT22;22513;51.222;6.480;2022-09-09T18:25:54;16.40;99.90
36498;DHT22;22513;51.222;6.480;2022-09-09T18:28:20;16.40;99.90
36498;DHT22;22513;51.222;6.480;2022-09-09T18:30:47;16.40;99.90
36498;DHT22;22513;51.222;6.480;2022-09-09T18:33:13;16.40;99.90
36498;DHT22;22513;51.222;6.480;2022-09-09T18:35:39;16.40;99.90